Southlake's Hourly Summary for Saturday, July 7, 2018
Hour Temp
(f)
RH
(%)
Solar Rad.
(MJ/m2)
Rainfall
(in)
Wind
(mph)
7/7/2018 12:00 AM 78 82 0 0 2.01
7/7/2018 1:00 AM 77 83 0 0 1.79
7/7/2018 2:00 AM 77 84 0 0 1.96
7/7/2018 3:00 AM 76 85 0 0 2.18
7/7/2018 4:00 AM 75 88 0 0 2.29
7/7/2018 5:00 AM 74 91 0 0 1.62
7/7/2018 6:00 AM 74 91 0.01 0 2.91
7/7/2018 7:00 AM 76 86 0.3 0 2.13
7/7/2018 8:00 AM 75 91 1 0 4.08
7/7/2018 9:00 AM 80 72 1.68 0 4.3
7/7/2018 10:00 AM 83 68 2.31 0 5.09
7/7/2018 11:00 AM 86 63 2.82 0 4.36
7/7/2018 12:00 PM 88 57 3.25 0 4.53
7/7/2018 1:00 PM 91 51 3.53 0 5.48
7/7/2018 2:00 PM 92 45 3.52 0 5.65
7/7/2018 3:00 PM 93 42 2.82 0 5.42
7/7/2018 4:00 PM 94 38 2.52 0 5.31
7/7/2018 5:00 PM 94 37 1.75 0 5.98
7/7/2018 6:00 PM 94 36 1.22 0 6.04
7/7/2018 7:00 PM 92 41 0.66 0 6.88
7/7/2018 8:00 PM 90 42 0.09 0 5.14
7/7/2018 9:00 PM 88 46 0 0 4.36
7/7/2018 10:00 PM 86 51 0 0 3.97
7/7/2018 11:00 PM 85 56 0 0 4.13
Data Summary 84 63 27.48 0.00 4.07